Time;durP1;ratioP1;P1;durP2;ratioP2;P2;SDS_P1;SDS_P2;PMS_P1;PMS_P2;Temp;Humidity;BMP_temperature;BMP_pressure;BME280_temperature;BME280_humidity;BME280_pressure;Samples;Min_cycle;Max_cycle;Signal;HPM_P1;HPM_P2
2023/07/07 00:35:58;;;;;;;28.27;17.00;;;25.90;99.90;;;;;;5090880;27;20381;-66
2023/07/07 00:38:25;;;;;;;423.70;373.35;;;26.50;99.90;;;;;;5090883;28;20107;-69
2023/07/07 00:40:53;;;;;;;182.52;147.98;;;26.10;99.90;;;;;;5091021;28;20021;-68
2023/07/07 00:43:20;;;;;;;29.13;19.23;;;26.70;99.90;;;;;;5090839;28;20021;-67
2023/07/07 00:45:47;;;;;;;17.02;13.80;;;26.50;99.90;;;;;;5090619;28;20473;-69
2023/07/07 00:48:18;;;;;;;18.98;12.15;;;26.60;99.90;;;;;;5090727;28;20024;-67
2023/07/07 00:50:55;;;;;;;19.13;13.02;;;26.50;99.90;;;;;;5090758;28;20032;-68
2023/07/07 00:53:22;;;;;;;33.90;25.00;;;26.70;99.90;;;;;;5090550;28;20058;-67
2023/07/07 00:55:56;;;;;;;20.35;13.73;;;27.00;99.90;;;;;;5090513;28;20025;-66
2023/07/07 00:58:25;;;;;;;34.47;23.00;;;27.00;99.90;;;;;;5090339;28;20021;-64
2023/07/07 01:00:59;;;;;;;17.20;11.98;;;27.20;99.90;;;;;;5090545;28;20560;-64
2023/07/07 01:03:32;;;;;;;17.70;11.95;;;26.80;99.90;;;;;;5090539;28;20051;-65
2023/07/07 01:06:02;;;;;;;21.40;11.25;;;26.90;99.90;;;;;;5090199;28;20020;-63
2023/07/07 01:08:29;;;;;;;20.58;11.85;;;27.20;99.90;;;;;;5090756;28;20060;-64
2023/07/07 01:10:55;;;;;;;24.70;16.45;;;27.20;99.90;;;;;;5090963;28;20059;-64
2023/07/07 01:13:23;;;;;;;139.98;85.53;;;26.90;99.90;;;;;;5090652;28;20016;-64
2023/07/07 01:16:04;;;;;;;36.60;25.25;;;27.30;99.90;;;;;;5090316;28;20028;-64
2023/07/07 01:18:57;;;;;;;30.25;25.63;;;27.00;99.90;;;;;;5090183;28;20020;-65
2023/07/07 01:21:32;;;;;;;320.80;285.45;;;;;;;;;;5082641;28;20036;-64
2023/07/07 01:23:59;;;;;;;131.00;109.88;;;;;;;;;;5090596;28;20042;-65
2023/07/07 01:26:27;;;;;;;21.70;13.88;;;27.40;99.90;;;;;;5090622;28;20431;-65
2023/07/07 01:29:03;;;;;;;88.57;78.65;;;27.50;99.90;;;;;;5090238;28;20028;-64
2023/07/07 01:31:40;;;;;;;39.20;28.77;;;27.40;99.90;;;;;;5090247;28;20032;-66
2023/07/07 01:34:10;;;;;;;28.52;19.52;;;27.50;99.90;;;;;;5090143;28;20439;-66
2023/07/07 01:36:37;;;;;;;99.93;60.88;;;27.40;99.90;;;;;;5090309;28;20103;-67
2023/07/07 01:39:04;;;;;;;30.13;19.63;;;27.30;99.90;;;;;;5090179;28;20016;-66
2023/07/07 01:41:56;;;;;;;26.48;20.88;;;27.40;99.90;;;;;;5090543;28;20107;-66
2023/07/07 01:44:29;;;;;;;30.58;19.00;;;27.50;99.90;;;;;;5087178;28;20020;-65
2023/07/07 01:47:06;;;;;;;90.40;80.90;;;27.50;99.90;;;;;;5074406;28;20032;-66
2023/07/07 01:49:38;;;;;;;29.05;25.63;;;27.50;99.90;;;;;;5070891;28;20493;-66
2023/07/07 01:52:19;;;;;;;;;;;27.50;99.90;;;;;;5056330;28;20496;-67
2023/07/07 01:54:53;;;;;;;22.75;16.73;;;27.50;99.90;;;;;;5056856;28;19916;-66
2023/07/07 01:57:23;;;;;;;28.48;19.05;;;27.50;99.90;;;;;;5071793;28;20017;-66
2023/07/07 01:59:49;;;;;;;26.17;18.75;;;27.50;99.90;;;;;;5056119;28;20099;-66
2023/07/07 02:02:16;;;;;;;24.73;18.48;;;27.50;99.90;;;;;;5055941;28;20017;-66
2023/07/07 02:04:43;;;;;;;26.33;18.60;;;27.60;99.90;;;;;;5066534;28;20529;-64
2023/07/07 02:07:10;;;;;;;34.63;19.35;;;27.50;99.90;;;;;;5064708;28;20057;-66
2023/07/07 02:09:37;;;;;;;20.58;15.13;;;27.70;99.90;;;;;;5055884;28;20446;-66
2023/07/07 02:12:04;;;;;;;34.03;23.45;;;27.40;99.90;;;;;;5055791;28;20031;-65
2023/07/07 02:14:31;;;;;;;27.45;18.17;;;27.40;99.90;;;;;;5060597;28;20028;-65
2023/07/07 02:16:57;;;;;;;26.27;18.13;;;27.50;99.90;;;;;;5060903;28;20017;-66
2023/07/07 02:19:24;;;;;;;36.28;17.52;;;27.80;99.90;;;;;;5056642;28;20067;-64
2023/07/07 02:21:51;;;;;;;21.17;16.58;;;27.60;99.90;;;;;;5056453;28;20050;-66
2023/07/07 02:24:17;;;;;;;38.83;32.92;;;27.40;99.90;;;;;;5056231;28;20028;-65
2023/07/07 02:26:44;;;;;;;50.80;45.33;;;27.40;99.90;;;;;;5066633;28;20028;-66
2023/07/07 02:29:11;;;;;;;31.20;24.75;;;27.60;99.90;;;;;;5070254;28;20025;-65
2023/07/07 02:31:37;;;;;;;363.45;258.90;;;27.50;99.90;;;;;;5067617;28;20028;-66
2023/07/07 02:34:04;;;;;;;61.97;39.90;;;27.70;99.90;;;;;;5066753;28;20103;-66
2023/07/07 02:36:30;;;;;;;25.98;19.88;;;27.70;99.90;;;;;;5063294;28;20532;-66
2023/07/07 02:38:57;;;;;;;59.67;42.47;;;27.70;99.90;;;;;;5056104;28;20029;-66
2023/07/07 02:41:23;;;;;;;67.32;45.83;;;27.80;99.90;;;;;;5066374;28;20063;-66
2023/07/07 02:43:50;;;;;;;40.45;30.92;;;27.70;99.90;;;;;;5075730;28;20021;-66
2023/07/07 02:46:16;;;;;;;29.25;23.35;;;28.00;99.90;;;;;;5076158;28;20036;-66
2023/07/07 02:48:43;;;;;;;29.88;22.45;;;28.10;99.90;;;;;;5075962;28;20020;-66
2023/07/07 02:51:09;;;;;;;30.10;23.65;;;28.00;99.90;;;;;;5076108;28;20043;-65
2023/07/07 02:53:37;;;;;;;31.13;22.97;;;28.10;99.90;;;;;;5065091;28;20074;-65
2023/07/07 02:56:05;;;;;;;27.50;19.38;;;28.00;99.90;;;;;;5055126;28;20541;-66
2023/07/07 02:58:31;;;;;;;29.98;19.55;;;28.30;99.90;;;;;;5062880;28;20036;-65
2023/07/07 03:01:12;;;;;;;26.70;18.65;;;28.20;99.90;;;;;;5059346;28;20028;-66
2023/07/07 03:03:44;;;;;;;25.83;18.67;;;28.40;99.90;;;;;;5065393;28;20020;-66
2023/07/07 03:06:16;;;;;;;23.45;17.88;;;28.50;99.90;;;;;;5056407;28;20469;-66
2023/07/07 03:08:43;;;;;;;32.25;20.38;;;28.40;99.90;;;;;;5063830;28;20029;-66
2023/07/07 03:11:12;;;;;;;24.13;19.02;;;28.60;99.90;;;;;;5061335;28;20554;-66
2023/07/07 03:13:39;;;;;;;26.73;19.77;;;28.40;99.90;;;;;;5058826;28;20071;-66
2023/07/07 03:16:10;;;;;;;26.90;19.05;;;28.60;99.90;;;;;;5063479;28;20418;-66
2023/07/07 03:18:37;;;;;;;29.45;20.70;;;28.50;99.90;;;;;;5063555;28;20071;-63
2023/07/07 03:21:06;;;;;;;26.38;21.15;;;28.60;99.90;;;;;;5059579;28;20469;-65
2023/07/07 03:23:33;;;;;;;234.60;164.70;;;28.50;99.90;;;;;;5062252;28;20386;-64
2023/07/07 03:26:09;;;;;;;133.35;87.82;;;28.50;99.90;;;;;;5062328;28;20479;-65
2023/07/07 03:28:36;;;;;;;82.80;66.47;;;;;;;;;;5059826;28;20052;-67
2023/07/07 03:31:09;;;;;;;62.97;43.03;;;;;;;;;;5065662;28;20497;-68
2023/07/07 03:33:36;;;;;;;43.03;29.92;;;;;;;;;;5064801;28;20461;-69
2023/07/07 03:36:02;;;;;;;46.75;32.20;;;;;;;;;;5063066;28;20477;-71
2023/07/07 03:38:29;;;;;;;41.17;29.45;;;;;;;;;;5065101;28;20013;-63
2023/07/07 03:40:55;;;;;;;83.80;66.25;;;;;;;;;;5062503;28;20024;-68
2023/07/07 03:43:22;;;;;;;33.08;22.58;;;;;;;;;;5062227;28;20102;-67
2023/07/07 03:45:49;;;;;;;42.03;26.65;;;;;;;;;;5063677;28;20021;-67
2023/07/07 03:48:15;;;;;;;65.15;32.78;;;;;;;;;;5062421;28;20025;-69
2023/07/07 03:50:42;;;;;;;59.13;32.47;;;;;;;;;;5063677;28;20021;-69
2023/07/07 03:53:09;;;;;;;56.38;29.98;;;;;;;;;;5061404;28;20017;-68
2023/07/07 03:55:35;;;;;;;59.58;29.80;;;;;;;;;;5064250;28;20436;-66
2023/07/07 03:58:02;;;;;;;69.60;37.15;;;;;;;;;;5060944;28;20013;-65
2023/07/07 04:00:29;;;;;;;62.22;34.05;;;;;;;;;;5064226;28;20021;-65
2023/07/07 04:02:55;;;;;;;94.13;40.85;;;;;;;;;;5065328;28;20229;-66
2023/07/07 04:05:22;;;;;;;103.70;47.33;;;;;;;;;;5063877;28;20020;-66
2023/07/07 04:07:49;;;;;;;105.05;49.25;;;;;;;;;;5063187;28;20378;-66
2023/07/07 04:10:16;;;;;;;117.28;54.88;;;;;;;;;;5057899;28;20485;-65
2023/07/07 04:12:43;;;;;;;147.45;58.88;;;;;;;;;;5061957;28;20074;-66
2023/07/07 04:15:09;;;;;;;140.02;55.55;;;;;;;;;;5059708;28;20016;-66
2023/07/07 04:17:36;;;;;;;129.65;55.53;;;;;;;;;;5062973;28;20020;-66
2023/07/07 04:20:06;;;;;;;118.13;52.53;;;;;;;;;;5060579;28;20021;-66
2023/07/07 04:22:32;;;;;;;110.70;50.67;;;;;;;;;;5062200;28;20032;-67
2023/07/07 04:25:09;;;;;;;91.32;46.75;;;;;;;;;;5053284;28;20029;-66
2023/07/07 04:27:36;;;;;;;80.07;47.05;;;;;;;;;;5053124;28;20481;-66
2023/07/07 04:30:03;;;;;;;76.78;45.63;;;;;;;;;;5052721;28;20029;-66
2023/07/07 04:32:30;;;;;;;92.63;49.97;;;;;;;;;;5060150;28;20025;-67
2023/07/07 04:34:57;;;;;;;72.57;45.05;;;;;;;;;;5061007;28;20045;-67
2023/07/07 04:37:23;;;;;;;53.58;34.22;;;;;;;;;;5058224;28;20102;-66
2023/07/07 04:39:50;;;;;;;42.72;30.90;;;;;;;;;;5059049;28;20135;-66
2023/07/07 04:42:16;;;;;;;48.15;35.17;;;;;;;;;;5061693;28;20166;-68
2023/07/07 04:44:43;;;;;;;43.45;32.30;;;;;;;;;;5061048;28;20028;-68
2023/07/07 04:47:10;;;;;;;32.10;23.10;;;;;;;;;;5065347;28;20020;-67
2023/07/07 04:49:36;;;;;;;25.58;17.80;;;;;;;;;;5067917;28;20070;-67
2023/07/07 04:52:03;;;;;;;24.13;18.95;;;;;;;;;;5066407;28;20470;-67
2023/07/07 04:54:30;;;;;;;22.95;17.42;;;;;;;;;;5067501;28;20048;-66
2023/07/07 04:56:56;;;;;;;24.42;17.58;;;;;;;;;;5060376;28;20358;-67
2023/07/07 04:59:23;;;;;;;29.15;19.90;;;;;;;;;;5058986;28;20059;-68
2023/07/07 05:01:50;;;;;;;38.55;24.92;;;;;;;;;;5062600;28;20085;-67
2023/07/07 05:04:16;;;;;;;29.25;21.05;;;;;;;;;;5061431;28;20025;-68
2023/07/07 05:06:44;;;;;;;21.13;16.23;;;;;;;;;;5061941;28;20051;-67
2023/07/07 05:09:12;;;;;;;20.33;14.65;;;;;;;;;;5063381;28;20187;-68
2023/07/07 05:11:39;;;;;;;14.10;10.70;;;;;;;;;;5062685;28;20028;-68
2023/07/07 05:14:06;;;;;;;14.95;10.85;;;;;;;;;;5061576;28;20440;-67
2023/07/07 05:16:35;;;;;;;15.45;9.68;;;;;;;;;;5061515;28;20021;-67
2023/07/07 05:19:02;;;;;;;10.20;8.55;;;;;;;;;;5058975;28;20071;-67
2023/07/07 05:21:28;;;;;;;9.55;7.80;;;;;;;;;;5063786;28;20468;-67
2023/07/07 05:23:57;;;;;;;8.70;7.70;;;;;;;;;;5064968;28;20044;-67
2023/07/07 05:26:28;;;;;;;13.35;10.48;;;;;;;;;;5061042;28;20032;-67
2023/07/07 05:28:55;;;;;;;9.90;8.32;;;;;;;;;;5066709;28;20074;-66
2023/07/07 05:31:21;;;;;;;8.95;7.40;;;;;;;;;;5067061;28;20031;-67
2023/07/07 05:33:48;;;;;;;14.18;9.93;;;;;;;;;;5065648;28;20101;-67
2023/07/07 05:36:15;;;;;;;25.13;17.15;;;;;;;;;;5065382;28;20016;-67
2023/07/07 05:38:42;;;;;;;37.40;23.30;;;;;;;;;;5066976;28;20466;-68
2023/07/07 05:41:09;;;;;;;31.52;21.10;;;;;;;;;;5064959;28;20020;-67
2023/07/07 05:43:36;;;;;;;37.30;21.40;;;;;;;;;;5065853;28;20071;-67
2023/07/07 05:46:04;;;;;;;29.48;19.00;;;;;;;;;;5064864;28;20013;-67
2023/07/07 05:48:31;;;;;;;19.73;13.75;;;;;;;;;;5065573;28;20070;-67
2023/07/07 05:51:00;;;;;;;13.55;9.60;;;;;;;;;;5064974;28;20691;-67
2023/07/07 05:53:27;;;;;;;7.85;6.05;;;;;;;;;;5062457;28;20044;-67
2023/07/07 05:55:57;;;;;;;11.75;5.93;;;;;;;;;;5059621;28;20025;-66
2023/07/07 05:58:24;;;;;;;5.78;4.75;;;;;;;;;;5058313;28;20143;-67
2023/07/07 06:00:50;;;;;;;6.72;4.97;;;;;;;;;;5074500;28;20100;-67
2023/07/07 06:03:17;;;;;;;6.75;5.38;;;;;;;;;;5062199;28;20021;-66
2023/07/07 06:05:44;;;;;;;5.75;4.70;;;;;;;;;;5059497;28;20029;-66
2023/07/07 06:08:10;;;;;;;5.75;4.22;;;;;;;;;;5063311;28;20113;-68
2023/07/07 06:10:37;;;;;;;6.72;4.00;;;;;;;;;;5058425;28;20029;-67
2023/07/07 06:13:04;;;;;;;6.90;4.72;;;;;;;;;;5067730;28;20032;-68
2023/07/07 06:15:34;;;;;;;8.90;5.07;;;;;;;;;;5064733;28;20028;-68
2023/07/07 06:18:00;;;;;;;5.75;4.53;;;;;;;;;;5067413;28;20477;-69
2023/07/07 06:20:27;;;;;;;5.30;3.85;;;;;;;;;;5068409;28;20100;-68
2023/07/07 06:22:54;;;;;;;6.30;3.53;;;;;;;;;;5071855;28;20031;-68
2023/07/07 06:25:21;;;;;;;4.68;3.58;;;;;;;;;;5074239;28;20023;-68
2023/07/07 06:27:47;;;;;;;5.78;4.05;;;;;;;;;;5066552;28;20489;-68
2023/07/07 06:30:14;;;;;;;5.43;3.97;;;;;;;;;;5061466;28;20032;-66
2023/07/07 06:32:41;;;;;;;5.10;3.80;;;;;;;;;;5057172;28;20113;-66
2023/07/07 06:35:07;;;;;;;6.63;4.28;;;;;;;;;;5060688;28;20079;-66
2023/07/07 06:37:34;;;;;;;6.57;4.57;;;;;;;;;;5065236;28;20028;-66
2023/07/07 06:40:01;;;;;;;6.75;4.65;;;;;;;;;;5062085;28;20047;-67
2023/07/07 06:42:27;;;;;;;8.80;4.60;;;;;;;;;;5065247;28;20016;-66
2023/07/07 06:44:54;;;;;;;7.57;4.78;;;;;;;;;;5065052;28;20029;-65
2023/07/07 06:47:21;;;;;;;7.30;4.88;;;;;;;;;;5063588;28;20018;-66
2023/07/07 06:49:47;;;;;;;8.13;5.00;;;;;;;;;;5062198;28;20416;-67
2023/07/07 06:52:14;;;;;;;8.20;5.60;;;;;;;;;;5063467;28;20016;-67
2023/07/07 06:54:41;;;;;;;11.77;7.10;;;;;;;;;;5065547;28;20481;-65
2023/07/07 06:57:08;;;;;;;7.35;5.38;;;;;;;;;;5063791;28;20021;-66
2023/07/07 06:59:35;;;;;;;7.93;5.75;;;;;;;;;;5063890;28;20048;-66
2023/07/07 07:02:02;;;;;;;7.13;5.82;;;;;;;;;;5064953;28;20016;-66
2023/07/07 07:04:28;;;;;;;10.25;6.93;;;;;;;;;;5063726;28;20021;-67
2023/07/07 07:06:55;;;;;;;10.15;6.65;;;;;;;;;;5063529;28;20032;-66
2023/07/07 07:09:22;;;;;;;9.50;6.93;;;;;;;;;;5065161;28;20465;-67
2023/07/07 07:11:48;;;;;;;10.65;6.15;;;;;;;;;;5063723;28;20078;-69
2023/07/07 07:14:15;;;;;;;14.93;8.02;;;;;;;;;;5074120;28;20039;-67
2023/07/07 07:16:42;;;;;;;8.43;6.07;;;;;;;;;;5074407;28;20048;-69
2023/07/07 07:19:08;;;;;;;7.85;5.88;;;;;;;;;;5074411;28;20381;-70
2023/07/07 07:21:35;;;;;;;7.78;5.82;;;;;;;;;;5074138;28;20043;-69
2023/07/07 07:24:01;;;;;;;8.68;6.10;;;;;;;;;;5074242;28;20595;-69
2023/07/07 07:26:28;;;;;;;8.90;6.18;;;;;;;;;;5073730;28;20388;-69
2023/07/07 07:28:55;;;;;;;10.27;6.13;;;;;;;;;;5074407;28;20020;-68
2023/07/07 07:31:21;;;;;;;8.82;5.78;;;;;;;;;;5074044;28;20103;-68
2023/07/07 07:33:52;;;;;;;6.57;5.70;;;;;;;;;;5071774;28;21568;-69
2023/07/07 07:36:18;;;;;;;7.55;5.38;;;;;;;;;;5065414;28;20024;-67
2023/07/07 07:38:45;;;;;;;14.25;8.38;;;;;;;;;;5063066;28;20021;-67
2023/07/07 07:41:12;;;;;;;10.32;6.80;;;;;;;;;;5073388;28;20017;-66
2023/07/07 07:43:38;;;;;;;8.73;6.35;;;;;;;;;;5055564;28;20017;-68
2023/07/07 07:46:05;;;;;;;7.90;6.22;;;;;;;;;;5053525;28;20021;-69
2023/07/07 07:48:32;;;;;;;8.88;6.35;;;;;;;;;;5053775;28;20025;-69
2023/07/07 07:50:58;;;;;;;11.00;6.45;;;;;;;;;;5053592;28;20100;-69
2023/07/07 07:53:25;;;;;;;8.48;6.10;;;;;;;;;;5053683;28;20103;-68
2023/07/07 07:55:51;;;;;;;8.60;5.95;;;;;;;;;;5053409;28;20053;-69
2023/07/07 07:58:18;;;;;;;14.98;6.85;;;;;;;;;;5054260;28;20489;-69
2023/07/07 08:00:45;;;;;;;10.25;7.35;;;;;;;;;;5054148;28;20039;-68
2023/07/07 08:03:11;;;;;;;13.32;8.18;;;;;;;;;;5053904;28;20419;-68
2023/07/07 08:05:38;;;;;;;10.82;7.57;;;;;;;;;;5054005;28;20021;-69
2023/07/07 08:08:05;;;;;;;12.93;7.35;;;;;;;;;;5064803;28;20560;-68
2023/07/07 08:10:32;;;;;;;23.33;11.07;;;;;;;;;;5053778;28;20021;-69
2023/07/07 08:12:58;;;;;;;13.13;9.75;;;;;;;;;;5053157;28;20533;-69
2023/07/07 08:15:25;;;;;;;12.57;9.07;;;;;;;;;;5053296;28;20033;-67
2023/07/07 08:17:52;;;;;;;17.00;11.20;;;;;;;;;;5053541;28;20018;-68
2023/07/07 08:20:19;;;;;;;16.65;11.15;;;;;;;;;;5055331;28;20032;-68
2023/07/07 08:22:46;;;;;;;20.13;12.43;;;;;;;;;;5073340;28;20012;-69
2023/07/07 08:25:13;;;;;;;19.15;11.80;;;;;;;;;;5073501;28;20025;-68
2023/07/07 08:27:39;;;;;;;19.13;11.35;;;;;;;;;;5072376;28;20035;-69
2023/07/07 08:30:06;;;;;;;23.02;12.63;;;;;;;;;;5073648;28;20020;-69
2023/07/07 08:32:33;;;;;;;23.52;13.65;;;;;;;;;;5073033;28;20056;-69
2023/07/07 08:35:00;;;;;;;20.98;13.07;;;;;;;;;;5073104;28;20398;-69
2023/07/07 08:37:29;;;;;;;29.65;16.17;;;;;;;;;;5073201;28;20095;-68
2023/07/07 08:39:55;;;;;;;34.28;22.42;;;;;;;;;;5073283;28;20031;-69
2023/07/07 08:42:24;;;;;;;31.83;20.58;;;;;;;;;;5073322;28;20074;-69
2023/07/07 08:44:51;;;;;;;33.30;20.15;;;;;;;;;;5073108;28;20025;-68
2023/07/07 08:47:37;;;;;;;45.72;28.67;;;;;;;;;;5073061;28;20035;-69
2023/07/07 08:50:13;;;;;;;48.60;30.75;;;;;;;;;;5073049;28;20021;-69
2023/07/07 08:52:59;;;;;;;30.25;18.45;;;;;;;;;;5072737;28;20520;-70
2023/07/07 08:55:37;;;;;;;21.85;13.80;;;;;;;;;;5073081;28;20085;-70
2023/07/07 08:58:07;;;;;;;19.65;12.82;;;;;;;;;;5077191;28;20155;-69
2023/07/07 09:00:44;;;;;;;21.95;13.18;;;;;;;;;;5076985;28;20044;-70
2023/07/07 09:03:31;;;;;;;28.60;16.60;;;;;;;;;;5073289;28;20052;-69
2023/07/07 09:05:59;;;;;;;14.00;9.57;;;;;;;;;;5057018;28;20060;-68
2023/07/07 09:08:46;;;;;;;17.60;9.50;;;;;;;;;;5057171;28;20025;-68
2023/07/07 09:11:20;;;;;;;15.15;9.30;;;;;;;;;;5056413;28;20070;-67
2023/07/07 09:13:49;;;;;;;17.23;9.32;;;;;;;;;;5064211;28;20024;-66
2023/07/07 09:16:17;;;;;;;19.38;9.18;;;;;;;;;;5067263;28;20035;-69
2023/07/07 09:18:45;;;;;;;14.82;8.65;;;;;;;;;;5066027;28;20020;-68
2023/07/07 09:21:19;;;;;;;15.50;8.77;;;;;;;;;;5065528;28;20031;-67
2023/07/07 09:23:46;;;;;;;12.63;8.75;;;;;;;;;;5066076;28;20021;-67
2023/07/07 09:26:27;;;;;;;17.67;9.77;;;;;;;;;;5076739;28;20044;-69
2023/07/07 09:28:56;;;;;;;17.60;9.40;;;;;;;;;;5076315;28;20024;-70
2023/07/07 09:31:43;;;;;;;13.02;9.00;;;;;;;;;;5076573;28;20051;-68
2023/07/07 09:34:11;;;;;;;16.02;11.00;;;;;;;;;;5076334;28;20040;-67
2023/07/07 09:36:43;;;;;;;16.38;11.48;;;;;;;;;;5067531;28;20485;-68
2023/07/07 09:39:12;;;;;;;21.15;10.95;;;;;;;;;;5059197;28;20036;-68
2023/07/07 09:41:45;;;;;;;19.25;11.98;;;;;;;;;;5056480;28;20029;-68
2023/07/07 09:44:31;;;;;;;19.27;12.68;;;;;;;;;;5059004;28;20029;-68
2023/07/07 09:47:03;;;;;;;22.05;13.30;;;;;;;;;;5061520;28;20054;-68
2023/07/07 09:49:29;;;;;;;;;;;;;;;;;;5057401;28;20531;-69
2023/07/07 09:51:59;;;;;;;28.38;20.20;;;;;;;;;;5067435;28;19913;-69
2023/07/07 09:54:26;;;;;;;25.20;16.02;;;;;;;;;;5069617;28;20028;-69
2023/07/07 09:56:58;;;;;;;23.38;13.52;;;;;;;;;;5062834;28;20028;-67
2023/07/07 09:59:28;;;;;;;74.18;44.05;;;;;;;;;;5064452;28;20095;-68
2023/07/07 10:01:56;;;;;;;71.63;45.45;;;;;;;;;;5066546;28;20021;-67
2023/07/07 10:04:24;;;;;;;52.35;28.08;;;;;;;;;;5064880;28;20060;-68
2023/07/07 10:07:03;;;;;;;80.55;49.22;;;;;;;;;;5063946;28;20507;-68
2023/07/07 10:09:31;;;;;;;63.75;39.13;;;;;;;;;;5064715;28;20104;-68
2023/07/07 10:11:58;;;;;;;73.95;41.80;;;;;;;;;;5064421;28;20030;-69
2023/07/07 10:14:26;;;;;;;69.85;37.92;;;;;;;;;;5065801;28;20063;-68
2023/07/07 10:16:55;;;;;;;82.07;37.03;;;;;;;;;;5066087;28;20032;-67
2023/07/07 10:19:24;;;;;;;51.45;25.00;;;;;;;;;;5064107;28;20013;-68
2023/07/07 10:21:50;;;;;;;74.82;31.00;;;;;;;;;;5064025;28;20029;-68
2023/07/07 10:24:17;;;;;;;52.78;21.58;;;;;;;;;;5066308;28;20027;-69
2023/07/07 10:26:47;;;;;;;41.30;19.40;;;;;;;;;;5063977;28;20047;-67
2023/07/07 10:29:21;;;;;;;23.48;14.25;;;;;;;;;;5069910;28;20063;-68
2023/07/07 10:31:48;;;;;;;30.40;16.05;;;;;;;;;;5067162;28;20028;-68
2023/07/07 10:34:23;;;;;;;23.45;14.05;;;;;;;;;;5067023;28;20056;-69
2023/07/07 10:36:52;;;;;;;19.60;12.98;;;;;;;;;;5075192;28;20389;-69
2023/07/07 10:39:19;;;;;;;24.58;13.27;;;;;;;;;;5068927;28;20036;-69
2023/07/07 10:41:46;;;;;;;22.30;11.77;;;;;;;;;;5065877;28;20025;-69
2023/07/07 10:44:12;;;;;;;23.77;10.90;;;;;;;;;;5068718;28;20021;-69
2023/07/07 10:46:39;;;;;;;16.08;9.95;;;;;;;;;;5069179;28;20024;-72
2023/07/07 10:49:11;;;;;;;23.65;11.02;;;;;;;;;;5066701;28;20032;-70
2023/07/07 10:51:37;;;;;;;;;;;;;;;;;;5064087;28;20021;-71
2023/07/07 10:54:04;;;;;;;29.27;14.77;;;;;;;;;;5064933;28;19923;-71
2023/07/07 10:56:50;;;;;;;22.33;14.25;;;;;;;;;;5064965;28;20032;-71
2023/07/07 10:59:25;;;;;;;21.08;13.80;;;;;;;;;;5065524;28;20024;-70
2023/07/07 11:01:52;;;;;;;25.77;14.75;;;;;;;;;;5058585;28;20116;-69
2023/07/07 11:04:39;;;;;;;21.08;12.65;;;;;;;;;;5061995;28;20092;-70
2023/07/07 11:07:05;;;;;;;61.60;39.40;;;;;;;;;;5063859;28;20025;-70
2023/07/07 11:09:42;;;;;;;25.23;17.67;;;;;;;;;;5063719;28;20028;-69
2023/07/07 11:12:28;;;;;;;100.85;77.10;;;;;;;;;;5064069;28;20017;-70
2023/07/07 11:14:57;;;;;;;15.10;9.50;;;;;;;;;;5065089;28;20029;-70
2023/07/07 11:17:27;;;;;;;17.67;9.18;;;;;;;;;;5063374;28;20013;-69
2023/07/07 11:20:04;;;;;;;19.58;9.82;;;;;;;;;;5063397;28;20052;-68
2023/07/07 11:22:42;;;;;;;20.88;12.10;;;;;;;;;;5064301;28;20025;-69
2023/07/07 11:25:29;;;;;;;14.23;8.10;;;;;;;;;;5064112;28;20539;-70
2023/07/07 11:27:56;;;;;;;16.27;10.18;;;;;;;;;;5065000;28;20462;-69
2023/07/07 11:30:32;;;;;;;17.33;10.93;;;;;;;;;;5063147;28;20028;-69
2023/07/07 11:32:59;;;;;;;42.28;33.92;;;;;;;;;;5062132;28;20032;-69
2023/07/07 11:35:29;;;;;;;31.73;22.30;;;;;;;;;;5061042;28;20041;-69
2023/07/07 11:37:56;;;;;;;70.45;46.88;;;;;;;;;;5062846;28;20058;-68
2023/07/07 11:40:33;;;;;;;19.95;13.98;;;;;;;;;;5062840;28;20017;-67
2023/07/07 11:43:06;;;;;;;35.00;22.27;;;;;;;;;;5062493;28;20017;-68
2023/07/07 11:45:52;;;;;;;25.98;15.60;;;;;;;;;;5062677;28;20024;-67
2023/07/07 11:48:39;;;;;;;25.02;16.25;;;;;;;;;;5061958;28;20474;-67
2023/07/07 11:51:07;;;;;;;18.77;13.15;;;;;;;;;;5062979;28;20051;-68
2023/07/07 11:53:43;;;;;;;19.05;13.27;;;;;;;;;;5062899;28;20031;-68
2023/07/07 11:56:18;;;;;;;23.05;13.32;;;;;;;;;;5063359;28;20028;-67
2023/07/07 11:58:44;;;;;;;32.47;21.15;;;;;;;;;;5062118;28;20029;-66
2023/07/07 12:01:16;;;;;;;23.33;16.40;;;;;;;;;;5064650;28;20017;-65
2023/07/07 12:03:45;;;;;;;41.83;30.42;;;;;;;;;;5062571;28;20071;-65
2023/07/07 12:06:27;;;;;;;28.33;17.58;;;;;;;;;;5061300;28;20043;-65
2023/07/07 12:08:56;;;;;;;14.30;9.50;;;;;;;;;;5064197;28;20023;-64
2023/07/07 12:11:24;;;;;;;14.35;9.30;;;;;;;;;;5062817;28;20024;-65
2023/07/07 12:14:06;;;;;;;12.10;7.50;;;;;;;;;;5061362;28;20112;-64
2023/07/07 12:16:33;;;;;;;13.60;7.25;;;;;;;;;;5062938;28;20021;-66
2023/07/07 12:19:13;;;;;;;13.38;6.90;;;;;;;;;;5064405;28;20017;-66
2023/07/07 12:21:40;;;;;;;16.23;6.57;;;;;;;;;;5064638;28;20017;-66
2023/07/07 12:24:25;;;;;;;79.25;57.55;;;;;;;;;;5063064;28;20017;-64
2023/07/07 12:26:58;;;;;;;61.38;41.25;;;;;;;;;;5063211;28;20028;-68
2023/07/07 12:29:25;;;;;;;38.45;30.45;;;;;;;;;;5062144;28;20024;-67
2023/07/07 12:31:52;;;;;;;62.30;51.80;;;;;;;;;;5062889;28;20028;-65
2023/07/07 12:34:19;;;;;;;84.88;54.92;;;;;;;;;;5064144;28;20044;-65
2023/07/07 12:36:47;;;;;;;13.77;8.27;;;;;;;;;;5062488;28;20032;-65
2023/07/07 12:39:13;;;;;;;12.85;7.22;;;;;;;;;;5062725;28;20377;-66
2023/07/07 12:41:40;;;;;;;12.23;7.78;;;;;;;;;;5064553;28;20063;-66
2023/07/07 12:44:08;;;;;;;12.32;7.45;;;;;;;;;;5063028;28;20021;-66
2023/07/07 12:46:36;;;;;;;13.07;7.97;;;;;;;;;;5064389;28;20092;-68
2023/07/07 12:49:08;;;;;;;13.23;7.97;;;;;;;;;;5065278;28;20410;-65
2023/07/07 12:51:34;;;;;;;;;;;;;;;;;;5069126;28;20070;-67
2023/07/07 12:54:01;;;;;;;41.88;31.33;;;;;;;;;;5068397;28;20357;-67
2023/07/07 12:56:29;;;;;;;34.65;21.70;;;;;;;;;;5067166;28;20025;-67
2023/07/07 12:58:56;;;;;;;32.30;14.80;;;;;;;;;;5063318;28;20017;-65
2023/07/07 13:01:23;;;;;;;52.63;33.03;;;;;;;;;;5064035;28;20078;-64
2023/07/07 13:03:54;;;;;;;30.17;20.20;;;;;;;;;;5061721;28;20025;-64
2023/07/07 13:06:41;;;;;;;16.90;10.95;;;;;;;;;;5064487;28;20017;-66
2023/07/07 13:09:09;;;;;;;13.85;10.10;;;;;;;;;;5061390;28;20044;-66
2023/07/07 13:11:38;;;;;;;16.45;9.60;;;;;;;;;;5063380;28;20055;-64
2023/07/07 13:14:06;;;;;;;17.10;9.48;;;;;;;;;;5063690;28;20419;-66
2023/07/07 13:16:33;;;;;;;15.02;9.73;;;;;;;;;;5060883;28;20036;-66
2023/07/07 13:19:00;;;;;;;14.98;10.25;;;;;;;;;;5062627;28;20021;-67
2023/07/07 13:21:30;;;;;;;18.73;10.55;;;;;;;;;;5063971;28;20008;-66
2023/07/07 13:23:56;;;;;;;22.90;14.60;;;;;;;;;;5063916;28;20021;-65
2023/07/07 13:26:24;;;;;;;28.90;17.50;;;;;;;;;;5061855;28;20049;-67
2023/07/07 13:28:51;;;;;;;21.58;14.18;;;;;;;;;;5068066;28;20090;-66
2023/07/07 13:31:17;;;;;;;19.42;12.23;;;;;;;;;;5073838;28;20024;-65
2023/07/07 13:33:44;;;;;;;20.27;13.52;;;;;;;;;;5072748;28;20079;-68
2023/07/07 13:36:12;;;;;;;26.92;15.95;;;;;;;;;;5070642;28;20056;-66
2023/07/07 13:38:42;;;;;;;40.10;24.35;;;;;;;;;;5083897;28;20449;-66
2023/07/07 13:41:10;;;;;;;39.90;23.70;;;;;;;;;;5089729;28;20017;-65
2023/07/07 13:43:39;;;;;;;25.17;16.63;;;;;;;;;;5083461;28;20016;-66
2023/07/07 13:46:15;;;;;;;25.63;15.98;;;;;;;;;;5085546;28;20028;-66
2023/07/07 13:48:43;;;;;;;26.33;16.52;;;;;;;;;;5093243;28;20280;-66
2023/07/07 13:51:13;;;;;;;24.08;16.70;;;;;;;;;;5078963;28;20074;-65
2023/07/07 13:53:40;;;;;;;26.52;16.17;;;;;;;;;;5088638;28;20027;-66
2023/07/07 13:56:06;;;;;;;22.67;14.57;;;;;;;;;;5079126;28;20410;-66
2023/07/07 13:58:33;;;;;;;25.40;14.77;;;;;;;;;;5092901;28;20017;-65
2023/07/07 14:01:02;;;;;;;27.73;17.70;;;;;;;;;;5082904;28;20024;-65
2023/07/07 14:03:29;;;;;;;25.52;16.02;;;;;;;;;;5085731;28;20020;-65
2023/07/07 14:05:57;;;;;;;23.38;14.77;;;;;;;;;;5090768;28;20028;-66
2023/07/07 14:08:26;;;;;;;22.45;13.77;;;;;;;;;;5076734;28;20029;-65
2023/07/07 14:10:54;;;;;;;22.05;13.55;;;;;;;;;;5069426;28;20465;-67
2023/07/07 14:13:22;;;;;;;29.13;14.48;;;;;;;;;;5070465;28;20033;-66
2023/07/07 14:15:48;;;;;;;37.97;21.15;;;;;;;;;;5069214;28;20043;-66
2023/07/07 14:18:16;;;;;;;36.45;19.88;;;;;;;;;;5071545;28;20023;-65
2023/07/07 14:20:45;;;;;;;27.65;15.82;;;;;;;;;;5071853;28;20023;-66
2023/07/07 14:23:12;;;;;;;25.73;13.38;;;;;;;;;;5068425;28;20464;-66
2023/07/07 14:25:42;;;;;;;32.15;16.88;;;;;;;;;;5070417;28;20025;-66
2023/07/07 14:28:13;;;;;;;50.90;26.63;;;;;;;;;;5071599;28;20096;-67
2023/07/07 14:30:45;;;;;;;46.50;26.25;;;;;;;;;;5070770;28;20020;-67
2023/07/07 14:33:12;;;;;;;;;;;;;;;;;;5069819;28;20059;-66
2023/07/07 14:35:41;;;;;;;53.20;25.15;;;;;;;;;;5070458;28;19916;-66
2023/07/07 14:38:27;;;;;;;33.35;20.30;;;;;;;;;;5071255;28;20027;-68
2023/07/07 14:40:55;;;;;;;36.05;21.38;;;;;;;;;;5071233;28;20489;-67
2023/07/07 14:43:21;;;;;;;39.05;20.95;;;;;;;;;;5070595;28;20104;-66
2023/07/07 14:45:49;;;;;;;39.42;22.05;;;;;;;;;;5069417;28;20107;-67